Terminal Aerodrome Forecast
Issued by NWS North Platte, NE

Home | Current Version | Previous Version | Text Only | Print | Product List | Glossary On
Versions: 1 2 3 4 5 6 7 8 9 10 11 12 13 14 15
000
FTUS43 KLBF 230500
TAFLBF
TAF
KLBF 230520Z 2306/2406 13010KT P6SM BKN100
     FM231200 15009KT P6SM OVC050
     FM231600 21009G15KT P6SM BKN150
     FM232000 20011G18KT P6SM BKN250
     FM240000 17012KT P6SM SCT250=

USA.gov is the U.S. government's official web portal to all federal, state and local government web resources and services.